sensor_id;sensor_type;location;lat;lon;timestamp;P1;durP1;ratioP1;P2;durP2;ratioP2
38399;SDS011;24180;42.676;23.320;2024-02-21T00:00:13;4.53;;;3.17;;
38399;SDS011;24180;42.676;23.320;2024-02-21T00:02:39;3.72;;;2.72;;
38399;SDS011;24180;42.676;23.320;2024-02-21T00:05:05;3.40;;;2.53;;
38399;SDS011;24180;42.676;23.320;2024-02-21T00:07:30;4.10;;;3.17;;
38399;SDS011;24180;42.676;23.320;2024-02-21T00:09:56;3.15;;;2.83;;
38399;SDS011;24180;42.676;23.320;2024-02-21T00:12:21;2.10;;;2.00;;
38399;SDS011;24180;42.676;23.320;2024-02-21T00:14:47;2.58;;;2.38;;
38399;SDS011;24180;42.676;23.320;2024-02-21T00:17:12;1.50;;;1.40;;
38399;SDS011;24180;42.676;23.320;2024-02-21T00:19:38;2.80;;;2.60;;
38399;SDS011;24180;42.676;23.320;2024-02-21T00:22:03;2.00;;;1.90;;
38399;SDS011;24180;42.676;23.320;2024-02-21T00:24:29;3.75;;;3.00;;
38399;SDS011;24180;42.676;23.320;2024-02-21T00:26:54;2.35;;;2.20;;
38399;SDS011;24180;42.676;23.320;2024-02-21T00:29:20;2.90;;;2.70;;
38399;SDS011;24180;42.676;23.320;2024-02-21T00:31:45;3.10;;;2.80;;
38399;SDS011;24180;42.676;23.320;2024-02-21T00:34:11;2.50;;;2.40;;
38399;SDS011;24180;42.676;23.320;2024-02-21T00:36:37;2.33;;;2.20;;
38399;SDS011;24180;42.676;23.320;2024-02-21T00:39:03;3.60;;;2.50;;
38399;SDS011;24180;42.676;23.320;2024-02-21T00:41:29;2.85;;;2.65;;
38399;SDS011;24180;42.676;23.320;2024-02-21T00:43:54;2.60;;;2.40;;
38399;SDS011;24180;42.676;23.320;2024-02-21T00:46:20;2.78;;;2.50;;
38399;SDS011;24180;42.676;23.320;2024-02-21T00:48:45;1.90;;;1.58;;
38399;SDS011;24180;42.676;23.320;2024-02-21T00:51:11;3.03;;;2.40;;
38399;SDS011;24180;42.676;23.320;2024-02-21T00:53:36;3.17;;;2.70;;
38399;SDS011;24180;42.676;23.320;2024-02-21T00:56:04;2.50;;;2.30;;
38399;SDS011;24180;42.676;23.320;2024-02-21T00:58:30;1.80;;;1.70;;
38399;SDS011;24180;42.676;23.320;2024-02-21T01:00:56;1.88;;;1.77;;
38399;SDS011;24180;42.676;23.320;2024-02-21T01:03:21;2.45;;;2.25;;
38399;SDS011;24180;42.676;23.320;2024-02-21T01:05:46;2.75;;;2.10;;
38399;SDS011;24180;42.676;23.320;2024-02-21T01:08:12;2.95;;;2.75;;
38399;SDS011;24180;42.676;23.320;2024-02-21T01:10:37;2.65;;;2.45;;
38399;SDS011;24180;42.676;23.320;2024-02-21T01:13:03;3.28;;;2.90;;
38399;SDS011;24180;42.676;23.320;2024-02-21T01:15:28;4.43;;;2.85;;
38399;SDS011;24180;42.676;23.320;2024-02-21T01:17:54;3.03;;;2.38;;
38399;SDS011;24180;42.676;23.320;2024-02-21T01:20:20;2.58;;;2.38;;
38399;SDS011;24180;42.676;23.320;2024-02-21T01:22:46;3.17;;;2.70;;
38399;SDS011;24180;42.676;23.320;2024-02-21T01:25:11;5.35;;;3.40;;
38399;SDS011;24180;42.676;23.320;2024-02-21T01:27:37;3.53;;;3.15;;
38399;SDS011;24180;42.676;23.320;2024-02-21T01:30:03;3.97;;;3.60;;
38399;SDS011;24180;42.676;23.320;2024-02-21T01:32:28;3.65;;;3.35;;
38399;SDS011;24180;42.676;23.320;2024-02-21T01:34:54;4.45;;;3.20;;
38399;SDS011;24180;42.676;23.320;2024-02-21T01:37:19;2.90;;;2.70;;
38399;SDS011;24180;42.676;23.320;2024-02-21T01:39:45;3.70;;;3.03;;
38399;SDS011;24180;42.676;23.320;2024-02-21T01:42:10;4.10;;;3.20;;
38399;SDS011;24180;42.676;23.320;2024-02-21T01:44:36;4.57;;;2.97;;
38399;SDS011;24180;42.676;23.320;2024-02-21T01:47:03;3.00;;;2.70;;
38399;SDS011;24180;42.676;23.320;2024-02-21T01:49:28;4.03;;;3.63;;
38399;SDS011;24180;42.676;23.320;2024-02-21T01:51:55;3.78;;;2.55;;
38399;SDS011;24180;42.676;23.320;2024-02-21T01:54:21;4.93;;;3.58;;
38399;SDS011;24180;42.676;23.320;2024-02-21T01:56:46;3.38;;;3.08;;
38399;SDS011;24180;42.676;23.320;2024-02-21T01:59:13;5.43;;;3.60;;
38399;SDS011;24180;42.676;23.320;2024-02-21T02:01:40;4.18;;;3.10;;
38399;SDS011;24180;42.676;23.320;2024-02-21T02:04:06;3.17;;;2.88;;
38399;SDS011;24180;42.676;23.320;2024-02-21T02:06:32;2.97;;;2.75;;
38399;SDS011;24180;42.676;23.320;2024-02-21T02:08:58;5.13;;;3.53;;
38399;SDS011;24180;42.676;23.320;2024-02-21T02:11:23;3.53;;;3.20;;
38399;SDS011;24180;42.676;23.320;2024-02-21T02:13:49;3.88;;;3.22;;
38399;SDS011;24180;42.676;23.320;2024-02-21T02:16:14;4.43;;;3.20;;
38399;SDS011;24180;42.676;23.320;2024-02-21T02:18:40;3.63;;;3.25;;
38399;SDS011;24180;42.676;23.320;2024-02-21T02:21:07;7.07;;;3.97;;
38399;SDS011;24180;42.676;23.320;2024-02-21T02:23:38;4.10;;;3.70;;
38399;SDS011;24180;42.676;23.320;2024-02-21T02:26:05;2.45;;;2.25;;
38399;SDS011;24180;42.676;23.320;2024-02-21T02:30:57;3.90;;;3.53;;
38399;SDS011;24180;42.676;23.320;2024-02-21T02:33:23;5.60;;;3.45;;
38399;SDS011;24180;42.676;23.320;2024-02-21T02:35:48;3.65;;;2.80;;
38399;SDS011;24180;42.676;23.320;2024-02-21T02:38:14;6.05;;;4.78;;
38399;SDS011;24180;42.676;23.320;2024-02-21T02:40:41;4.57;;;3.97;;
38399;SDS011;24180;42.676;23.320;2024-02-21T02:45:32;5.32;;;3.67;;
38399;SDS011;24180;42.676;23.320;2024-02-21T02:47:58;8.60;;;5.15;;
38399;SDS011;24180;42.676;23.320;2024-02-21T02:50:24;6.80;;;3.90;;
38399;SDS011;24180;42.676;23.320;2024-02-21T02:52:51;4.07;;;3.60;;
38399;SDS011;24180;42.676;23.320;2024-02-21T02:55:16;11.18;;;5.55;;
38399;SDS011;24180;42.676;23.320;2024-02-21T02:57:42;5.47;;;3.92;;
38399;SDS011;24180;42.676;23.320;2024-02-21T03:00:08;8.00;;;4.55;;
38399;SDS011;24180;42.676;23.320;2024-02-21T03:02:37;4.55;;;4.03;;
38399;SDS011;24180;42.676;23.320;2024-02-21T03:05:11;5.28;;;3.72;;
38399;SDS011;24180;42.676;23.320;2024-02-21T03:07:40;5.53;;;4.25;;
38399;SDS011;24180;42.676;23.320;2024-02-21T03:10:05;4.45;;;3.78;;
38399;SDS011;24180;42.676;23.320;2024-02-21T03:12:31;7.35;;;4.60;;
38399;SDS011;24180;42.676;23.320;2024-02-21T03:14:57;6.68;;;4.88;;
38399;SDS011;24180;42.676;23.320;2024-02-21T03:17:22;5.15;;;4.15;;
38399;SDS011;24180;42.676;23.320;2024-02-21T03:19:48;7.78;;;4.43;;
38399;SDS011;24180;42.676;23.320;2024-02-21T03:22:15;4.13;;;3.53;;
38399;SDS011;24180;42.676;23.320;2024-02-21T03:24:41;5.00;;;3.45;;
38399;SDS011;24180;42.676;23.320;2024-02-21T03:27:07;5.88;;;4.20;;
38399;SDS011;24180;42.676;23.320;2024-02-21T03:29:33;7.00;;;4.38;;
38399;SDS011;24180;42.676;23.320;2024-02-21T03:31:58;7.38;;;4.72;;
38399;SDS011;24180;42.676;23.320;2024-02-21T03:34:24;4.60;;;3.75;;
38399;SDS011;24180;42.676;23.320;2024-02-21T03:36:49;5.07;;;3.85;;
38399;SDS011;24180;42.676;23.320;2024-02-21T03:39:15;6.13;;;4.82;;
38399;SDS011;24180;42.676;23.320;2024-02-21T03:41:40;8.48;;;5.00;;
38399;SDS011;24180;42.676;23.320;2024-02-21T03:44:06;6.95;;;4.10;;
38399;SDS011;24180;42.676;23.320;2024-02-21T03:46:31;8.27;;;4.22;;
38399;SDS011;24180;42.676;23.320;2024-02-21T03:48:57;8.20;;;4.97;;
38399;SDS011;24180;42.676;23.320;2024-02-21T03:51:22;7.78;;;5.22;;
38399;SDS011;24180;42.676;23.320;2024-02-21T03:53:48;7.53;;;4.72;;
38399;SDS011;24180;42.676;23.320;2024-02-21T03:56:13;6.80;;;4.35;;
38399;SDS011;24180;42.676;23.320;2024-02-21T03:58:39;6.65;;;5.05;;
38399;SDS011;24180;42.676;23.320;2024-02-21T04:01:04;7.50;;;4.85;;
38399;SDS011;24180;42.676;23.320;2024-02-21T04:03:30;5.10;;;3.97;;
38399;SDS011;24180;42.676;23.320;2024-02-21T04:05:56;5.85;;;4.38;;
38399;SDS011;24180;42.676;23.320;2024-02-21T04:08:22;9.48;;;6.03;;
38399;SDS011;24180;42.676;23.320;2024-02-21T04:10:48;6.32;;;4.20;;
38399;SDS011;24180;42.676;23.320;2024-02-21T04:13:13;10.02;;;5.07;;
38399;SDS011;24180;42.676;23.320;2024-02-21T04:15:38;10.60;;;5.50;;
38399;SDS011;24180;42.676;23.320;2024-02-21T04:18:04;11.52;;;6.07;;
38399;SDS011;24180;42.676;23.320;2024-02-21T04:20:30;10.35;;;5.43;;
38399;SDS011;24180;42.676;23.320;2024-02-21T04:22:55;9.90;;;5.63;;
38399;SDS011;24180;42.676;23.320;2024-02-21T04:25:21;8.00;;;5.13;;
38399;SDS011;24180;42.676;23.320;2024-02-21T04:27:47;6.90;;;4.97;;
38399;SDS011;24180;42.676;23.320;2024-02-21T04:30:12;9.52;;;5.43;;
38399;SDS011;24180;42.676;23.320;2024-02-21T04:32:38;9.55;;;5.80;;
38399;SDS011;24180;42.676;23.320;2024-02-21T04:35:05;13.43;;;6.72;;
38399;SDS011;24180;42.676;23.320;2024-02-21T04:37:32;8.68;;;5.57;;
38399;SDS011;24180;42.676;23.320;2024-02-21T04:39:57;9.10;;;5.53;;
38399;SDS011;24180;42.676;23.320;2024-02-21T04:42:23;10.55;;;6.10;;
38399;SDS011;24180;42.676;23.320;2024-02-21T04:44:48;14.77;;;7.60;;
38399;SDS011;24180;42.676;23.320;2024-02-21T04:47:14;13.25;;;7.80;;
38399;SDS011;24180;42.676;23.320;2024-02-21T04:49:39;9.45;;;5.97;;
38399;SDS011;24180;42.676;23.320;2024-02-21T04:52:05;10.07;;;6.35;;
38399;SDS011;24180;42.676;23.320;2024-02-21T04:54:30;12.18;;;6.40;;
38399;SDS011;24180;42.676;23.320;2024-02-21T04:56:56;11.63;;;6.72;;
38399;SDS011;24180;42.676;23.320;2024-02-21T04:59:21;9.93;;;6.05;;
38399;SDS011;24180;42.676;23.320;2024-02-21T05:01:47;9.77;;;6.05;;
38399;SDS011;24180;42.676;23.320;2024-02-21T05:04:12;10.57;;;5.53;;
38399;SDS011;24180;42.676;23.320;2024-02-21T05:06:38;11.00;;;5.22;;
38399;SDS011;24180;42.676;23.320;2024-02-21T05:09:05;10.82;;;6.03;;
38399;SDS011;24180;42.676;23.320;2024-02-21T05:11:31;9.48;;;5.43;;
38399;SDS011;24180;42.676;23.320;2024-02-21T05:13:57;7.55;;;5.13;;
38399;SDS011;24180;42.676;23.320;2024-02-21T05:16:22;6.78;;;5.28;;
38399;SDS011;24180;42.676;23.320;2024-02-21T05:18:48;12.43;;;6.15;;
38399;SDS011;24180;42.676;23.320;2024-02-21T05:21:13;9.13;;;5.13;;
38399;SDS011;24180;42.676;23.320;2024-02-21T05:23:39;10.90;;;6.35;;
38399;SDS011;24180;42.676;23.320;2024-02-21T05:26:05;8.32;;;5.72;;
38399;SDS011;24180;42.676;23.320;2024-02-21T05:28:31;10.52;;;5.28;;
38399;SDS011;24180;42.676;23.320;2024-02-21T05:30:57;12.25;;;5.75;;
38399;SDS011;24180;42.676;23.320;2024-02-21T05:33:23;10.15;;;6.05;;
38399;SDS011;24180;42.676;23.320;2024-02-21T05:35:49;8.88;;;6.13;;
38399;SDS011;24180;42.676;23.320;2024-02-21T05:38:14;11.60;;;5.97;;
38399;SDS011;24180;42.676;23.320;2024-02-21T05:40:40;13.27;;;6.60;;
38399;SDS011;24180;42.676;23.320;2024-02-21T05:43:09;12.77;;;6.93;;
38399;SDS011;24180;42.676;23.320;2024-02-21T05:45:35;11.98;;;6.72;;
38399;SDS011;24180;42.676;23.320;2024-02-21T05:48:00;12.75;;;6.70;;
38399;SDS011;24180;42.676;23.320;2024-02-21T05:50:27;14.85;;;7.03;;
38399;SDS011;24180;42.676;23.320;2024-02-21T05:52:56;10.52;;;6.32;;
38399;SDS011;24180;42.676;23.320;2024-02-21T05:55:22;8.50;;;6.15;;
38399;SDS011;24180;42.676;23.320;2024-02-21T05:57:47;11.70;;;6.53;;
38399;SDS011;24180;42.676;23.320;2024-02-21T06:00:13;13.57;;;6.97;;
38399;SDS011;24180;42.676;23.320;2024-02-21T06:02:40;13.75;;;7.32;;
38399;SDS011;24180;42.676;23.320;2024-02-21T06:05:06;14.27;;;7.45;;
38399;SDS011;24180;42.676;23.320;2024-02-21T06:07:32;11.38;;;6.68;;
38399;SDS011;24180;42.676;23.320;2024-02-21T06:09:59;10.10;;;6.53;;
38399;SDS011;24180;42.676;23.320;2024-02-21T06:12:25;16.38;;;7.28;;
38399;SDS011;24180;42.676;23.320;2024-02-21T06:14:50;10.93;;;6.30;;
38399;SDS011;24180;42.676;23.320;2024-02-21T06:17:17;11.80;;;7.32;;
38399;SDS011;24180;42.676;23.320;2024-02-21T06:19:43;11.90;;;7.70;;
38399;SDS011;24180;42.676;23.320;2024-02-21T06:22:09;13.38;;;6.82;;
38399;SDS011;24180;42.676;23.320;2024-02-21T06:24:35;15.02;;;8.02;;
38399;SDS011;24180;42.676;23.320;2024-02-21T06:29:27;13.70;;;7.05;;
38399;SDS011;24180;42.676;23.320;2024-02-21T06:31:52;12.80;;;6.95;;
38399;SDS011;24180;42.676;23.320;2024-02-21T06:34:18;11.43;;;6.55;;
38399;SDS011;24180;42.676;23.320;2024-02-21T06:36:44;10.68;;;6.20;;
38399;SDS011;24180;42.676;23.320;2024-02-21T06:39:10;13.82;;;6.32;;
38399;SDS011;24180;42.676;23.320;2024-02-21T06:41:36;11.43;;;6.75;;
38399;SDS011;24180;42.676;23.320;2024-02-21T06:44:02;14.43;;;6.65;;
38399;SDS011;24180;42.676;23.320;2024-02-21T06:46:28;11.43;;;5.32;;
38399;SDS011;24180;42.676;23.320;2024-02-21T06:48:55;15.32;;;7.47;;
38399;SDS011;24180;42.676;23.320;2024-02-21T06:51:21;14.73;;;8.73;;
38399;SDS011;24180;42.676;23.320;2024-02-21T06:53:47;16.30;;;9.32;;
38399;SDS011;24180;42.676;23.320;2024-02-21T06:56:13;15.77;;;8.45;;
38399;SDS011;24180;42.676;23.320;2024-02-21T06:58:39;16.52;;;8.30;;
38399;SDS011;24180;42.676;23.320;2024-02-21T07:01:04;20.13;;;9.02;;
38399;SDS011;24180;42.676;23.320;2024-02-21T07:03:30;15.48;;;8.13;;
38399;SDS011;24180;42.676;23.320;2024-02-21T07:05:55;15.82;;;9.00;;
38399;SDS011;24180;42.676;23.320;2024-02-21T07:08:21;12.80;;;7.53;;
38399;SDS011;24180;42.676;23.320;2024-02-21T07:10:47;13.77;;;7.35;;
38399;SDS011;24180;42.676;23.320;2024-02-21T07:13:12;12.68;;;7.43;;
38399;SDS011;24180;42.676;23.320;2024-02-21T07:15:38;10.25;;;6.35;;
38399;SDS011;24180;42.676;23.320;2024-02-21T07:18:04;17.85;;;7.43;;
38399;SDS011;24180;42.676;23.320;2024-02-21T07:20:29;8.13;;;5.72;;
38399;SDS011;24180;42.676;23.320;2024-02-21T07:22:55;14.27;;;7.43;;
38399;SDS011;24180;42.676;23.320;2024-02-21T07:25:20;7.88;;;6.00;;
38399;SDS011;24180;42.676;23.320;2024-02-21T07:27:46;20.98;;;8.82;;
38399;SDS011;24180;42.676;23.320;2024-02-21T07:30:11;19.77;;;7.97;;
38399;SDS011;24180;42.676;23.320;2024-02-21T07:32:37;15.27;;;7.00;;
38399;SDS011;24180;42.676;23.320;2024-02-21T07:35:03;15.13;;;7.38;;
38399;SDS011;24180;42.676;23.320;2024-02-21T07:37:28;13.55;;;7.10;;
38399;SDS011;24180;42.676;23.320;2024-02-21T07:39:54;6.97;;;4.75;;
38399;SDS011;24180;42.676;23.320;2024-02-21T07:42:19;8.00;;;4.80;;
38399;SDS011;24180;42.676;23.320;2024-02-21T07:44:45;6.28;;;4.30;;
38399;SDS011;24180;42.676;23.320;2024-02-21T07:47:10;13.38;;;7.20;;
38399;SDS011;24180;42.676;23.320;2024-02-21T07:49:45;12.45;;;7.25;;
38399;SDS011;24180;42.676;23.320;2024-02-21T07:52:11;22.52;;;10.98;;
38399;SDS011;24180;42.676;23.320;2024-02-21T07:54:36;20.60;;;9.48;;
38399;SDS011;24180;42.676;23.320;2024-02-21T07:57:02;17.45;;;7.65;;
38399;SDS011;24180;42.676;23.320;2024-02-21T07:59:28;14.95;;;7.50;;
38399;SDS011;24180;42.676;23.320;2024-02-21T08:01:57;11.95;;;6.28;;
38399;SDS011;24180;42.676;23.320;2024-02-21T08:04:23;11.38;;;6.50;;
38399;SDS011;24180;42.676;23.320;2024-02-21T08:06:52;13.85;;;6.85;;
38399;SDS011;24180;42.676;23.320;2024-02-21T08:09:21;9.80;;;6.80;;
38399;SDS011;24180;42.676;23.320;2024-02-21T08:16:41;4.35;;;3.75;;
38399;SDS011;24180;42.676;23.320;2024-02-21T08:19:07;7.38;;;4.88;;
38399;SDS011;24180;42.676;23.320;2024-02-21T08:21:32;9.02;;;4.93;;
38399;SDS011;24180;42.676;23.320;2024-02-21T08:23:58;12.18;;;6.68;;
38399;SDS011;24180;42.676;23.320;2024-02-21T08:26:23;11.20;;;6.47;;
38399;SDS011;24180;42.676;23.320;2024-02-21T08:28:48;12.05;;;7.10;;
38399;SDS011;24180;42.676;23.320;2024-02-21T08:31:19;11.38;;;5.50;;
38399;SDS011;24180;42.676;23.320;2024-02-21T08:33:45;5.95;;;4.40;;
38399;SDS011;24180;42.676;23.320;2024-02-21T08:36:17;8.15;;;5.38;;
38399;SDS011;24180;42.676;23.320;2024-02-21T08:38:44;10.05;;;6.20;;
38399;SDS011;24180;42.676;23.320;2024-02-21T08:41:09;5.90;;;4.25;;
38399;SDS011;24180;42.676;23.320;2024-02-21T08:43:35;10.85;;;5.50;;
38399;SDS011;24180;42.676;23.320;2024-02-21T08:46:01;9.95;;;6.00;;
38399;SDS011;24180;42.676;23.320;2024-02-21T08:48:26;8.85;;;5.60;;
38399;SDS011;24180;42.676;23.320;2024-02-21T08:50:52;11.80;;;6.57;;
38399;SDS011;24180;42.676;23.320;2024-02-21T08:53:19;8.80;;;5.70;;
38399;SDS011;24180;42.676;23.320;2024-02-21T08:55:45;8.82;;;5.53;;
38399;SDS011;24180;42.676;23.320;2024-02-21T08:58:10;11.85;;;7.05;;
38399;SDS011;24180;42.676;23.320;2024-02-21T09:00:36;11.07;;;6.60;;
38399;SDS011;24180;42.676;23.320;2024-02-21T09:03:02;8.85;;;5.75;;
38399;SDS011;24180;42.676;23.320;2024-02-21T09:05:28;7.47;;;5.25;;
38399;SDS011;24180;42.676;23.320;2024-02-21T09:07:53;13.23;;;7.60;;
38399;SDS011;24180;42.676;23.320;2024-02-21T09:10:19;6.63;;;4.30;;
38399;SDS011;24180;42.676;23.320;2024-02-21T09:12:44;10.13;;;5.70;;
38399;SDS011;24180;42.676;23.320;2024-02-21T09:15:10;7.03;;;4.10;;
38399;SDS011;24180;42.676;23.320;2024-02-21T09:17:35;7.85;;;5.00;;
38399;SDS011;24180;42.676;23.320;2024-02-21T09:20:01;6.18;;;5.03;;
38399;SDS011;24180;42.676;23.320;2024-02-21T09:22:28;8.02;;;5.45;;
38399;SDS011;24180;42.676;23.320;2024-02-21T09:24:54;6.18;;;4.70;;
38399;SDS011;24180;42.676;23.320;2024-02-21T09:27:20;5.72;;;4.78;;
38399;SDS011;24180;42.676;23.320;2024-02-21T09:29:45;6.78;;;4.60;;
38399;SDS011;24180;42.676;23.320;2024-02-21T09:32:11;5.32;;;4.22;;
38399;SDS011;24180;42.676;23.320;2024-02-21T09:34:37;10.27;;;6.07;;
38399;SDS011;24180;42.676;23.320;2024-02-21T09:37:03;7.18;;;5.18;;
38399;SDS011;24180;42.676;23.320;2024-02-21T09:39:29;9.32;;;6.13;;
38399;SDS011;24180;42.676;23.320;2024-02-21T09:42:04;12.00;;;6.18;;
38399;SDS011;24180;42.676;23.320;2024-02-21T09:44:38;9.63;;;6.00;;
38399;SDS011;24180;42.676;23.320;2024-02-21T09:47:09;13.57;;;6.63;;
38399;SDS011;24180;42.676;23.320;2024-02-21T09:49:39;9.55;;;6.45;;
38399;SDS011;24180;42.676;23.320;2024-02-21T09:52:07;4.57;;;4.05;;
38399;SDS011;24180;42.676;23.320;2024-02-21T09:54:34;10.73;;;7.90;;
38399;SDS011;24180;42.676;23.320;2024-02-21T09:57:00;8.57;;;6.13;;
38399;SDS011;24180;42.676;23.320;2024-02-21T09:59:27;11.48;;;6.72;;
38399;SDS011;24180;42.676;23.320;2024-02-21T10:01:53;9.68;;;6.03;;
38399;SDS011;24180;42.676;23.320;2024-02-21T10:04:20;5.50;;;4.88;;
38399;SDS011;24180;42.676;23.320;2024-02-21T10:06:45;6.43;;;4.75;;
38399;SDS011;24180;42.676;23.320;2024-02-21T10:09:23;5.28;;;4.57;;
38399;SDS011;24180;42.676;23.320;2024-02-21T10:11:52;5.80;;;3.65;;
38399;SDS011;24180;42.676;23.320;2024-02-21T10:14:18;7.07;;;5.18;;
38399;SDS011;24180;42.676;23.320;2024-02-21T10:16:47;7.90;;;5.28;;
38399;SDS011;24180;42.676;23.320;2024-02-21T10:19:19;4.63;;;4.18;;
38399;SDS011;24180;42.676;23.320;2024-02-21T10:24:36;7.22;;;4.80;;
38399;SDS011;24180;42.676;23.320;2024-02-21T10:27:04;3.45;;;3.15;;
38399;SDS011;24180;42.676;23.320;2024-02-21T10:29:33;3.67;;;3.33;;
38399;SDS011;24180;42.676;23.320;2024-02-21T10:32:06;7.35;;;3.83;;
38399;SDS011;24180;42.676;23.320;2024-02-21T10:34:33;5.68;;;4.07;;
38399;SDS011;24180;42.676;23.320;2024-02-21T10:37:08;5.30;;;4.15;;
38399;SDS011;24180;42.676;23.320;2024-02-21T10:39:38;5.28;;;4.07;;
38399;SDS011;24180;42.676;23.320;2024-02-21T10:42:05;4.88;;;3.42;;
38399;SDS011;24180;42.676;23.320;2024-02-21T10:46:58;5.55;;;3.92;;
38399;SDS011;24180;42.676;23.320;2024-02-21T10:49:27;6.00;;;4.90;;
38399;SDS011;24180;42.676;23.320;2024-02-21T10:52:12;6.70;;;5.00;;
38399;SDS011;24180;42.676;23.320;2024-02-21T10:54:54;6.57;;;4.47;;
38399;SDS011;24180;42.676;23.320;2024-02-21T10:57:23;6.30;;;4.60;;
38399;SDS011;24180;42.676;23.320;2024-02-21T10:59:52;5.55;;;5.05;;
38399;SDS011;24180;42.676;23.320;2024-02-21T11:02:19;5.35;;;4.70;;
38399;SDS011;24180;42.676;23.320;2024-02-21T11:04:45;4.15;;;3.85;;
38399;SDS011;24180;42.676;23.320;2024-02-21T11:07:12;2.22;;;2.13;;
38399;SDS011;24180;42.676;23.320;2024-02-21T11:12:05;5.53;;;4.40;;
38399;SDS011;24180;42.676;23.320;2024-02-21T11:14:31;3.17;;;2.88;;
38399;SDS011;24180;42.676;23.320;2024-02-21T11:16:57;3.40;;;3.15;;
38399;SDS011;24180;42.676;23.320;2024-02-21T11:19:27;3.28;;;2.80;;
38399;SDS011;24180;42.676;23.320;2024-02-21T11:21:54;3.83;;;3.53;;
38399;SDS011;24180;42.676;23.320;2024-02-21T11:26:56;2.92;;;2.65;;
38399;SDS011;24180;42.676;23.320;2024-02-21T11:29:44;3.10;;;2.85;;
38399;SDS011;24180;42.676;23.320;2024-02-21T11:32:11;2.20;;;2.05;;
38399;SDS011;24180;42.676;23.320;2024-02-21T11:34:40;3.20;;;2.85;;
38399;SDS011;24180;42.676;23.320;2024-02-21T11:37:13;2.08;;;1.98;;
38399;SDS011;24180;42.676;23.320;2024-02-21T11:39:43;4.32;;;3.15;;
38399;SDS011;24180;42.676;23.320;2024-02-21T11:42:09;2.60;;;2.40;;
38399;SDS011;24180;42.676;23.320;2024-02-21T11:44:36;2.00;;;1.90;;
38399;SDS011;24180;42.676;23.320;2024-02-21T11:47:07;2.90;;;2.58;;
38399;SDS011;24180;42.676;23.320;2024-02-21T11:49:43;2.38;;;2.28;;
38399;SDS011;24180;42.676;23.320;2024-02-21T11:52:11;2.55;;;2.30;;
38399;SDS011;24180;42.676;23.320;2024-02-21T11:54:40;2.28;;;2.08;;
38399;SDS011;24180;42.676;23.320;2024-02-21T11:57:06;4.20;;;2.55;;
38399;SDS011;24180;42.676;23.320;2024-02-21T11:59:32;5.47;;;3.75;;
38399;SDS011;24180;42.676;23.320;2024-02-21T12:01:58;4.15;;;3.47;;
38399;SDS011;24180;42.676;23.320;2024-02-21T12:04:30;5.47;;;3.28;;
38399;SDS011;24180;42.676;23.320;2024-02-21T12:06:56;3.30;;;2.97;;
38399;SDS011;24180;42.676;23.320;2024-02-21T12:09:23;3.35;;;2.33;;
38399;SDS011;24180;42.676;23.320;2024-02-21T12:12:05;3.03;;;2.75;;
38399;SDS011;24180;42.676;23.320;2024-02-21T12:14:31;3.85;;;3.45;;
38399;SDS011;24180;42.676;23.320;2024-02-21T12:16:58;6.45;;;3.83;;
38399;SDS011;24180;42.676;23.320;2024-02-21T12:19:25;3.60;;;2.67;;
38399;SDS011;24180;42.676;23.320;2024-02-21T12:21:50;14.10;;;4.47;;
38399;SDS011;24180;42.676;23.320;2024-02-21T12:24:20;3.80;;;3.10;;
38399;SDS011;24180;42.676;23.320;2024-02-21T12:26:47;8.60;;;3.22;;
38399;SDS011;24180;42.676;23.320;2024-02-21T12:29:13;2.92;;;2.65;;
38399;SDS011;24180;42.676;23.320;2024-02-21T12:31:39;3.83;;;2.88;;
38399;SDS011;24180;42.676;23.320;2024-02-21T12:34:05;2.13;;;2.03;;
38399;SDS011;24180;42.676;23.320;2024-02-21T12:36:31;5.97;;;3.42;;
38399;SDS011;24180;42.676;23.320;2024-02-21T12:41:22;3.47;;;3.17;;
38399;SDS011;24180;42.676;23.320;2024-02-21T12:43:50;4.13;;;3.50;;
38399;SDS011;24180;42.676;23.320;2024-02-21T12:46:16;2.75;;;2.53;;
38399;SDS011;24180;42.676;23.320;2024-02-21T12:48:41;4.97;;;3.58;;
38399;SDS011;24180;42.676;23.320;2024-02-21T12:51:07;22.95;;;4.80;;
38399;SDS011;24180;42.676;23.320;2024-02-21T12:53:33;3.33;;;2.97;;
38399;SDS011;24180;42.676;23.320;2024-02-21T12:55:58;6.32;;;3.58;;
38399;SDS011;24180;42.676;23.320;2024-02-21T12:58:24;7.28;;;4.35;;
38399;SDS011;24180;42.676;23.320;2024-02-21T13:00:50;4.65;;;3.70;;
38399;SDS011;24180;42.676;23.320;2024-02-21T13:03:15;7.70;;;4.28;;
38399;SDS011;24180;42.676;23.320;2024-02-21T13:05:40;7.68;;;4.72;;
38399;SDS011;24180;42.676;23.320;2024-02-21T13:08:06;5.30;;;4.43;;
38399;SDS011;24180;42.676;23.320;2024-02-21T13:10:32;2.83;;;2.60;;
38399;SDS011;24180;42.676;23.320;2024-02-21T13:12:59;4.75;;;3.50;;
38399;SDS011;24180;42.676;23.320;2024-02-21T13:15:28;4.35;;;3.72;;
38399;SDS011;24180;42.676;23.320;2024-02-21T13:17:53;4.40;;;3.50;;
38399;SDS011;24180;42.676;23.320;2024-02-21T13:20:20;5.38;;;4.35;;
38399;SDS011;24180;42.676;23.320;2024-02-21T13:22:46;5.95;;;3.58;;
38399;SDS011;24180;42.676;23.320;2024-02-21T13:25:12;4.97;;;4.13;;
38399;SDS011;24180;42.676;23.320;2024-02-21T13:27:40;4.35;;;3.90;;
38399;SDS011;24180;42.676;23.320;2024-02-21T13:30:06;3.35;;;3.00;;
38399;SDS011;24180;42.676;23.320;2024-02-21T13:32:34;3.00;;;2.80;;
38399;SDS011;24180;42.676;23.320;2024-02-21T13:34:59;3.25;;;2.95;;
38399;SDS011;24180;42.676;23.320;2024-02-21T13:39:52;3.85;;;3.50;;
38399;SDS011;24180;42.676;23.320;2024-02-21T13:42:18;4.65;;;2.67;;
38399;SDS011;24180;42.676;23.320;2024-02-21T13:44:44;4.85;;;3.15;;
38399;SDS011;24180;42.676;23.320;2024-02-21T13:47:10;4.60;;;4.20;;
38399;SDS011;24180;42.676;23.320;2024-02-21T13:49:38;3.33;;;3.08;;
38399;SDS011;24180;42.676;23.320;2024-02-21T13:52:04;3.22;;;2.92;;
38399;SDS011;24180;42.676;23.320;2024-02-21T13:54:30;3.33;;;2.47;;
38399;SDS011;24180;42.676;23.320;2024-02-21T13:56:55;2.92;;;2.72;;
38399;SDS011;24180;42.676;23.320;2024-02-21T13:59:20;4.32;;;3.33;;
38399;SDS011;24180;42.676;23.320;2024-02-21T14:01:46;6.15;;;5.32;;
38399;SDS011;24180;42.676;23.320;2024-02-21T14:04:11;6.70;;;3.85;;
38399;SDS011;24180;42.676;23.320;2024-02-21T14:06:37;5.50;;;4.07;;
38399;SDS011;24180;42.676;23.320;2024-02-21T14:09:08;4.82;;;3.47;;
38399;SDS011;24180;42.676;23.320;2024-02-21T14:11:36;5.30;;;3.90;;
38399;SDS011;24180;42.676;23.320;2024-02-21T14:18:54;2.08;;;1.88;;
38399;SDS011;24180;42.676;23.320;2024-02-21T14:21:20;3.08;;;2.80;;
38399;SDS011;24180;42.676;23.320;2024-02-21T14:23:45;4.13;;;2.75;;
38399;SDS011;24180;42.676;23.320;2024-02-21T14:26:11;3.42;;;2.85;;
38399;SDS011;24180;42.676;23.320;2024-02-21T14:28:37;3.15;;;2.85;;
38399;SDS011;24180;42.676;23.320;2024-02-21T14:31:02;4.50;;;3.40;;
38399;SDS011;24180;42.676;23.320;2024-02-21T14:33:31;3.78;;;3.47;;
38399;SDS011;24180;42.676;23.320;2024-02-21T14:35:56;2.65;;;2.45;;
38399;SDS011;24180;42.676;23.320;2024-02-21T14:38:22;4.30;;;3.90;;
38399;SDS011;24180;42.676;23.320;2024-02-21T14:40:47;2.90;;;2.60;;
38399;SDS011;24180;42.676;23.320;2024-02-21T14:43:13;4.10;;;3.70;;
38399;SDS011;24180;42.676;23.320;2024-02-21T14:45:39;4.70;;;3.85;;
38399;SDS011;24180;42.676;23.320;2024-02-21T14:48:05;3.55;;;3.13;;
38399;SDS011;24180;42.676;23.320;2024-02-21T14:50:31;4.95;;;3.60;;
38399;SDS011;24180;42.676;23.320;2024-02-21T14:52:56;4.93;;;4.10;;
38399;SDS011;24180;42.676;23.320;2024-02-21T14:55:22;5.20;;;4.13;;
38399;SDS011;24180;42.676;23.320;2024-02-21T14:57:48;5.60;;;4.07;;